Time;durP1;ratioP1;P1;durP2;ratioP2;P2;SDS_P1;SDS_P2;PMS_P1;PMS_P2;Temp;Humidity;BMP_temperature;BMP_pressure;BME280_temperature;BME280_humidity;BME280_pressure;Samples;Min_cycle;Max_cycle;Signal;HPM_P1;HPM_P2
2022/01/25 00:25:09;;;;;;;74.60;41.00;;;;;;;;;;5030901;28;20119;-73
2022/01/25 00:27:41;;;;;;;69.60;39.20;;;;;;;;;;5030939;28;20480;-73
2022/01/25 00:30:31;;;;;;;76.03;41.55;;;;;;;;;;5031115;28;20052;-73
2022/01/25 00:32:56;;;;;;;70.32;38.20;;;;;;;;;;5030818;28;20048;-73
2022/01/25 00:35:22;;;;;;;75.03;40.75;;;;;;;;;;5030770;28;20083;-73
2022/01/25 00:37:48;;;;;;;73.43;40.03;;;;;;;;;;5030758;28;20124;-73
2022/01/25 00:40:14;;;;;;;74.72;40.33;;;;;;;;;;5030618;28;20120;-73
2022/01/25 00:42:40;;;;;;;78.20;40.78;;;;;;;;;;5030602;28;20076;-73
2022/01/25 00:45:09;;;;;;;74.45;41.03;;;;;;;;;;5030635;28;20108;-73
2022/01/25 00:47:35;;;;;;;76.15;40.45;;;;;;;;;;5040689;28;20029;-73
2022/01/25 00:50:01;;;;;;;71.65;40.15;;;;;;;;;;5051423;28;20048;-73
2022/01/25 00:55:12;;;;;;;73.22;40.63;;;;;;;;;;5052067;28;20079;-73
2022/01/25 00:57:38;;;;;;;77.00;41.72;;;;;;;;;;5032786;28;20514;-73
2022/01/25 01:00:06;;;;;;;81.63;41.63;;;;;;;;;;5032852;28;20136;-73
2022/01/25 01:02:32;;;;;;;76.15;40.63;;;;;;;;;;5052689;28;20021;-73
2022/01/25 01:04:58;;;;;;;75.38;40.67;;;;;;;;;;5052124;28;20341;-73
2022/01/25 01:07:25;;;;;;;74.60;40.05;;;;;;;;;;5052611;28;20426;-73
2022/01/25 01:09:52;;;;;;;72.15;39.65;;;;;;;;;;5052372;28;20029;-73
2022/01/25 01:28:51;;;;;;;79.95;40.90;;;;;;;;;;5052182;28;20029;-73
2022/01/25 01:44:05;;;;;;;85.05;40.58;;;;;;;;;;5051683;28;20059;-73
2022/01/25 01:46:40;;;;;;;75.32;40.97;;;;;;;;;;5053091;28;20029;-73
2022/01/25 01:49:09;;;;;;;74.47;39.50;;;;;;;;;;5070440;28;20024;-73
2022/01/25 01:51:39;;;;;;;74.90;40.33;;;;;;;;;;5071742;28;20017;-73
2022/01/25 01:54:10;;;;;;;75.65;39.95;;;;;;;;;;5071596;28;20078;-74
2022/01/25 01:56:36;;;;;;;80.20;42.67;;;;;;;;;;5046970;28;20037;-73
2022/01/25 01:59:04;;;;;;;81.05;41.03;;;;;;;;;;5031638;28;20083;-73
2022/01/25 02:01:31;;;;;;;75.30;41.45;;;;;;;;;;5031944;28;20262;-74
2022/01/25 02:03:58;;;;;;;72.40;39.38;;;;;;;;;;5031782;28;20029;-73
2022/01/25 02:06:24;;;;;;;71.55;38.80;;;;;;;;;;5031873;28;20024;-73
2022/01/25 02:08:50;;;;;;;78.85;41.25;;;;;;;;;;5031693;28;20022;-73
2022/01/25 02:11:16;;;;;;;78.50;40.80;;;;;;;;;;5031766;28;20033;-73
2022/01/25 02:13:43;;;;;;;89.53;41.22;;;;;;;;;;5031573;28;20091;-73
2022/01/25 02:16:20;;;;;;;77.82;40.47;;;;;;;;;;5031891;28;20040;-73
2022/01/25 02:24:15;;;;;;;83.22;42.85;;;;;;;;;;5051648;28;20044;-73
2022/01/25 02:26:41;;;;;;;83.07;41.92;;;;;;;;;;5055608;28;20041;-73
2022/01/25 02:29:07;;;;;;;78.43;40.60;;;;;;;;;;5055336;28;20467;-74
2022/01/25 02:31:33;;;;;;;76.68;41.35;;;;;;;;;;5055865;28;20036;-73
2022/01/25 02:33:59;;;;;;;79.55;41.03;;;;;;;;;;5055612;28;20036;-73
2022/01/25 02:36:28;;;;;;;82.85;40.15;;;;;;;;;;5054440;28;20067;-73
2022/01/25 02:38:57;;;;;;;78.72;40.47;;;;;;;;;;5054321;28;20102;-73
2022/01/25 02:41:24;;;;;;;83.82;41.70;;;;;;;;;;5054111;28;20028;-73
2022/01/25 02:43:51;;;;;;;80.40;41.47;;;;;;;;;;5053833;28;20082;-73
2022/01/25 02:48:29;;;;;;;82.90;41.05;;;;;;;;;;5053905;28;20017;-74
2022/01/25 02:49:08;;;;;;;83.00;42.17;;;;;;;;;;5033929;28;20029;-75
2022/01/25 02:51:33;;;;;;;82.57;41.20;;;;;;;;;;5034002;28;20075;-75
2022/01/25 02:54:00;;;;;;;78.80;40.45;;;;;;;;;;5048885;28;20116;-75
2022/01/25 02:56:27;;;;;;;73.57;38.40;;;;;;;;;;5033802;28;20025;-74
2022/01/25 02:58:53;;;;;;;80.80;41.13;;;;;;;;;;5033554;28;20029;-74
2022/01/25 03:01:22;;;;;;;74.78;38.97;;;;;;;;;;5033800;28;20021;-74
2022/01/25 03:03:48;;;;;;;79.70;40.75;;;;;;;;;;5033832;28;20032;-75
2022/01/25 03:06:15;;;;;;;80.20;40.70;;;;;;;;;;5033758;28;20029;-74
2022/01/25 03:08:41;;;;;;;77.28;39.53;;;;;;;;;;5033492;28;20056;-75
2022/01/25 03:11:07;;;;;;;79.40;40.33;;;;;;;;;;5033773;28;20394;-75
2022/01/25 03:13:47;;;;;;;81.53;41.75;;;;;;;;;;5033305;28;20060;-75
2022/01/25 03:16:20;;;;;;;83.50;40.50;;;;;;;;;;5033600;28;20025;-73
2022/01/25 03:18:47;;;;;;;81.78;40.92;;;;;;;;;;5033442;28;20042;-75
2022/01/25 03:23:46;;;;;;;80.85;40.35;;;;;;;;;;5045649;28;20035;-74
2022/01/25 03:26:12;;;;;;;79.05;41.53;;;;;;;;;;5053613;28;20455;-74
2022/01/25 03:28:38;;;;;;;81.75;41.00;;;;;;;;;;5051180;28;20087;-74
2022/01/25 03:31:04;;;;;;;83.10;41.78;;;;;;;;;;5053257;28;20091;-74
2022/01/25 03:33:30;;;;;;;77.78;39.80;;;;;;;;;;5053055;28;20028;-74
2022/01/25 03:35:57;;;;;;;86.65;40.28;;;;;;;;;;5014370;28;1141903;-75
2022/01/25 03:38:23;;;;;;;71.22;37.38;;;;;;;;;;5054007;28;20027;-74
2022/01/25 03:40:49;;;;;;;78.55;38.63;;;;;;;;;;5054078;28;20060;-74
2022/01/25 03:43:17;;;;;;;76.78;38.88;;;;;;;;;;5053983;28;20053;-74
2022/01/25 03:45:56;;;;;;;77.00;40.08;;;;;;;;;;5053979;28;20468;-74
2022/01/25 03:50:49;;;;;;;79.57;40.25;;;;;;;;;;5073945;28;20033;-74
2022/01/25 03:53:16;;;;;;;81.00;40.50;;;;;;;;;;5073884;28;20142;-74
2022/01/25 03:55:42;;;;;;;81.97;41.80;;;;;;;;;;5068914;28;20112;-74
2022/01/25 03:58:08;;;;;;;78.80;41.35;;;;;;;;;;5053675;28;20096;-74
2022/01/25 04:00:35;;;;;;;79.28;40.92;;;;;;;;;;5053814;28;20052;-73
2022/01/25 04:03:10;;;;;;;82.07;41.45;;;;;;;;;;5053750;28;20109;-74
2022/01/25 04:05:56;;;;;;;80.25;40.13;;;;;;;;;;5053848;28;20025;-74
2022/01/25 04:08:22;;;;;;;80.50;39.78;;;;;;;;;;5053556;28;20060;-74
2022/01/25 04:10:48;;;;;;;80.07;41.08;;;;;;;;;;5053637;28;20060;-74
2022/01/25 04:13:15;;;;;;;79.53;40.60;;;;;;;;;;5053349;28;20436;-74
2022/01/25 04:15:44;;;;;;;84.68;41.63;;;;;;;;;;5053485;28;20052;-74
2022/01/25 04:26:29;;;;;;;83.63;41.53;;;;;;;;;;5051103;28;20392;-73
2022/01/25 04:28:55;;;;;;;78.38;39.60;;;;;;;;;;5050720;28;20136;-73
2022/01/25 04:31:21;;;;;;;81.00;41.05;;;;;;;;;;5050827;28;20037;-73
2022/01/25 04:34:07;;;;;;;88.25;42.00;;;;;;;;;;5033995;28;20037;-74
2022/01/25 04:50:03;;;;;;;83.22;40.35;;;;;;;;;;5050570;28;20060;-73
2022/01/25 04:52:34;;;;;;;86.30;42.08;;;;;;;;;;5050526;28;20060;-74
2022/01/25 05:00:10;;;;;;;79.43;41.08;;;;;;;;;;5038730;28;20033;-73
2022/01/25 05:03:14;;;;;;;80.60;40.13;;;;;;;;;;5052685;28;20018;-73
2022/01/25 05:05:31;;;;;;;84.03;41.63;;;;;;;;;;5051329;28;20029;-74
2022/01/25 05:08:04;;;;;;;87.80;42.92;;;;;;;;;;5052525;28;20013;-73
2022/01/25 05:10:34;;;;;;;89.38;41.97;;;;;;;;;;5051196;28;20024;-73
2022/01/25 05:13:19;;;;;;;82.38;39.78;;;;;;;;;;5052393;28;20464;-73
2022/01/25 05:18:16;;;;;;;85.50;42.13;;;;;;;;;;5052527;28;20483;-74
2022/01/25 05:23:27;;;;;;;83.32;39.72;;;;;;;;;;5049266;28;20040;-73
2022/01/25 05:25:53;;;;;;;84.90;41.97;;;;;;;;;;5052636;28;20360;-73
2022/01/25 05:28:19;;;;;;;82.43;39.88;;;;;;;;;;5051944;28;20024;-73
2022/01/25 05:30:45;;;;;;;82.72;39.97;;;;;;;;;;5052153;28;20021;-73
2022/01/25 05:33:11;;;;;;;87.20;42.75;;;;;;;;;;5052131;28;20033;-74
2022/01/25 05:35:37;;;;;;;88.72;41.55;;;;;;;;;;5052038;28;20098;-73
2022/01/25 05:38:03;;;;;;;88.55;41.08;;;;;;;;;;5051995;28;20737;-74
2022/01/25 05:40:43;;;;;;;89.00;41.60;;;;;;;;;;5051952;28;20075;-73
2022/01/25 05:48:10;;;;;;;89.15;41.35;;;;;;;;;;5062650;28;20032;-73
2022/01/25 05:50:36;;;;;;;87.10;40.28;;;;;;;;;;5071795;28;20082;-73
2022/01/25 05:53:03;;;;;;;88.15;41.78;;;;;;;;;;5071888;28;20020;-73
2022/01/25 05:55:29;;;;;;;90.95;41.50;;;;;;;;;;5065641;28;20479;-73
2022/01/25 05:57:55;;;;;;;89.28;41.35;;;;;;;;;;5031798;28;20033;-74
2022/01/25 06:00:21;;;;;;;85.82;41.88;;;;;;;;;;5030490;28;20498;-74
2022/01/25 06:02:53;;;;;;;87.43;41.65;;;;;;;;;;5031908;28;20116;-73
2022/01/25 06:05:19;;;;;;;91.45;41.78;;;;;;;;;;5031950;28;20018;-73
2022/01/25 06:07:45;;;;;;;96.13;44.15;;;;;;;;;;5031752;28;20032;-74
2022/01/25 06:10:11;;;;;;;91.00;42.67;;;;;;;;;;5031731;28;20026;-73
2022/01/25 06:12:37;;;;;;;90.82;43.75;;;;;;;;;;5031631;28;20029;-73
2022/01/25 06:15:04;;;;;;;92.25;41.83;;;;;;;;;;5031589;28;20029;-74
2022/01/25 06:17:30;;;;;;;90.75;42.63;;;;;;;;;;5031718;28;20104;-73
2022/01/25 06:19:55;;;;;;;90.80;42.13;;;;;;;;;;5031581;28;20112;-73
2022/01/25 06:22:22;;;;;;;92.18;42.50;;;;;;;;;;5032232;28;20028;-74
2022/01/25 06:24:48;;;;;;;96.47;43.10;;;;;;;;;;5051298;28;20472;-73
2022/01/25 06:27:14;;;;;;;95.57;42.42;;;;;;;;;;5051504;28;20056;-73
2022/01/25 06:29:40;;;;;;;91.30;42.10;;;;;;;;;;5051358;28;20091;-74
2022/01/25 06:32:07;;;;;;;88.53;40.58;;;;;;;;;;5051542;28;20414;-74
2022/01/25 06:34:33;;;;;;;98.35;43.42;;;;;;;;;;5051362;28;20040;-73
2022/01/25 06:36:59;;;;;;;96.07;43.40;;;;;;;;;;5051490;28;20029;-74
2022/01/25 06:39:25;;;;;;;90.55;40.92;;;;;;;;;;5049798;28;20025;-74
2022/01/25 06:41:51;;;;;;;94.07;42.17;;;;;;;;;;5050077;28;20029;-73
2022/01/25 06:44:18;;;;;;;89.65;40.80;;;;;;;;;;5051392;28;20462;-74
2022/01/25 06:46:46;;;;;;;92.78;43.10;;;;;;;;;;5051363;28;20418;-74
2022/01/25 06:49:13;;;;;;;91.90;42.63;;;;;;;;;;5070718;28;20104;-73
2022/01/25 06:51:39;;;;;;;95.88;42.15;;;;;;;;;;5071330;28;20127;-73
2022/01/25 06:54:05;;;;;;;94.05;43.33;;;;;;;;;;5071223;28;20036;-73
2022/01/25 06:56:31;;;;;;;93.03;42.75;;;;;;;;;;5048043;28;20030;-73
2022/01/25 06:58:57;;;;;;;88.97;40.35;;;;;;;;;;5031050;28;20681;-73
2022/01/25 07:01:23;;;;;;;90.05;42.47;;;;;;;;;;5031291;28;20040;-73
2022/01/25 07:03:49;;;;;;;91.25;42.50;;;;;;;;;;5033904;28;20067;-74
2022/01/25 07:06:15;;;;;;;92.40;42.03;;;;;;;;;;5034983;28;20028;-74
2022/01/25 07:08:44;;;;;;;90.07;41.67;;;;;;;;;;5034766;28;20043;-73
2022/01/25 07:11:10;;;;;;;92.97;42.60;;;;;;;;;;5034943;28;20502;-74
2022/01/25 07:13:36;;;;;;;97.13;42.45;;;;;;;;;;5034712;28;20100;-73
2022/01/25 07:16:02;;;;;;;91.05;42.75;;;;;;;;;;5034859;28;20112;-74
2022/01/25 07:18:28;;;;;;;94.32;42.40;;;;;;;;;;5034660;28;20171;-74
2022/01/25 07:20:54;;;;;;;97.18;43.45;;;;;;;;;;5034661;28;20103;-73
2022/01/25 07:23:21;;;;;;;96.20;41.83;;;;;;;;;;5046126;28;20017;-73
2022/01/25 07:25:47;;;;;;;93.32;40.85;;;;;;;;;;5054847;28;20035;-73
2022/01/25 07:28:13;;;;;;;95.13;43.65;;;;;;;;;;5054303;28;20029;-73
2022/01/25 07:30:39;;;;;;;97.10;43.58;;;;;;;;;;5054442;28;20079;-73
2022/01/25 07:33:06;;;;;;;104.93;45.25;;;;;;;;;;5054340;28;20140;-74
2022/01/25 07:35:35;;;;;;;98.47;42.88;;;;;;;;;;5054206;28;20587;-73
2022/01/25 07:38:01;;;;;;;99.65;42.83;;;;;;;;;;5054221;28;20033;-73
2022/01/25 07:40:28;;;;;;;100.13;43.70;;;;;;;;;;5054116;28;20056;-73
2022/01/25 07:42:54;;;;;;;93.70;43.10;;;;;;;;;;5054043;28;20021;-73
2022/01/25 07:45:21;;;;;;;91.63;42.53;;;;;;;;;;5054169;28;20383;-73
2022/01/25 07:47:47;;;;;;;95.50;43.00;;;;;;;;;;5058638;28;20038;-73
2022/01/25 07:50:14;;;;;;;95.95;43.60;;;;;;;;;;5074016;28;20058;-73
2022/01/25 07:52:40;;;;;;;99.72;44.78;;;;;;;;;;5074002;28;20046;-73
2022/01/25 07:55:06;;;;;;;97.18;44.33;;;;;;;;;;5073969;28;20497;-73
2022/01/25 07:57:32;;;;;;;100.07;42.60;;;;;;;;;;5033798;28;20029;-74
2022/01/25 07:59:59;;;;;;;95.30;44.00;;;;;;;;;;5048060;28;20062;-74
2022/01/25 08:02:25;;;;;;;100.65;43.92;;;;;;;;;;5043680;28;20107;-73
2022/01/25 08:04:52;;;;;;;98.72;42.33;;;;;;;;;;5047268;28;20444;-73
2022/01/25 08:07:18;;;;;;;97.18;43.35;;;;;;;;;;5053140;28;20092;-73
2022/01/25 08:09:44;;;;;;;99.18;43.78;;;;;;;;;;5044800;28;20107;-74
2022/01/25 08:12:11;;;;;;;97.80;42.05;;;;;;;;;;5046543;28;20029;-76
2022/01/25 08:14:38;;;;;;;94.40;43.08;;;;;;;;;;5041271;28;20036;-75
2022/01/25 08:17:05;;;;;;;93.50;41.58;;;;;;;;;;5047880;28;20021;-75
2022/01/25 08:19:32;;;;;;;93.63;41.97;;;;;;;;;;5046593;28;20056;-76
2022/01/25 08:21:58;;;;;;;100.72;43.92;;;;;;;;;;5042088;28;20028;-76
2022/01/25 08:24:25;;;;;;;94.63;42.60;;;;;;;;;;5047989;28;20029;-76
2022/01/25 08:26:51;;;;;;;96.20;43.83;;;;;;;;;;5048867;28;20029;-77
2022/01/25 08:29:17;;;;;;;95.18;42.15;;;;;;;;;;5048511;28;20044;-76
2022/01/25 08:31:43;;;;;;;92.45;40.85;;;;;;;;;;5051466;28;20051;-76
2022/01/25 08:34:11;;;;;;;94.70;41.88;;;;;;;;;;5052946;28;20044;-76
2022/01/25 08:36:38;;;;;;;93.03;41.60;;;;;;;;;;5044659;28;20017;-76
2022/01/25 08:39:05;;;;;;;96.68;41.80;;;;;;;;;;5052716;28;20115;-76
2022/01/25 08:41:31;;;;;;;96.68;40.10;;;;;;;;;;5050219;28;20052;-76
2022/01/25 08:43:57;;;;;;;90.15;41.05;;;;;;;;;;5052832;28;20025;-76
2022/01/25 08:46:23;;;;;;;96.00;43.20;;;;;;;;;;5053096;28;20029;-77
2022/01/25 08:48:49;;;;;;;92.55;41.58;;;;;;;;;;5041736;28;20394;-76
2022/01/25 08:51:15;;;;;;;99.28;44.55;;;;;;;;;;5042758;28;20028;-75
2022/01/25 08:53:41;;;;;;;91.60;42.88;;;;;;;;;;5046055;28;20495;-75
2022/01/25 08:56:08;;;;;;;90.60;40.22;;;;;;;;;;5041984;28;20032;-75
2022/01/25 08:58:34;;;;;;;92.82;42.80;;;;;;;;;;5050382;28;20025;-75
2022/01/25 09:01:00;;;;;;;95.40;42.53;;;;;;;;;;5049507;28;20021;-75
2022/01/25 09:03:26;;;;;;;90.13;41.72;;;;;;;;;;5050017;28;20033;-75
2022/01/25 09:05:53;;;;;;;92.85;41.97;;;;;;;;;;5046750;28;20053;-75
2022/01/25 09:08:21;;;;;;;88.75;42.05;;;;;;;;;;5048749;28;20017;-75
2022/01/25 09:10:57;;;;;;;94.05;42.70;;;;;;;;;;5041805;28;20017;-75
2022/01/25 09:13:23;;;;;;;93.75;40.85;;;;;;;;;;5049024;28;20107;-75
2022/01/25 09:15:49;;;;;;;87.50;40.63;;;;;;;;;;5045043;28;20108;-75
2022/01/25 09:18:15;;;;;;;91.78;42.70;;;;;;;;;;5044857;28;20112;-75
2022/01/25 09:20:41;;;;;;;90.95;41.90;;;;;;;;;;5050885;28;20262;-75
2022/01/25 09:23:07;;;;;;;89.63;40.92;;;;;;;;;;5041349;28;20091;-74
2022/01/25 09:25:33;;;;;;;96.22;42.47;;;;;;;;;;5042605;28;20064;-74
2022/01/25 09:27:59;;;;;;;94.55;41.88;;;;;;;;;;5044408;28;20119;-74
2022/01/25 09:30:25;;;;;;;96.18;43.45;;;;;;;;;;5046525;28;20391;-75
2022/01/25 09:32:51;;;;;;;85.47;41.00;;;;;;;;;;5044351;28;20037;-74
2022/01/25 09:35:17;;;;;;;95.18;42.03;;;;;;;;;;5046948;28;20125;-75
2022/01/25 09:37:44;;;;;;;90.32;41.58;;;;;;;;;;5046991;28;20032;-75
2022/01/25 09:40:10;;;;;;;89.45;41.83;;;;;;;;;;5045328;28;20033;-75
2022/01/25 09:42:37;;;;;;;90.53;42.78;;;;;;;;;;5050841;28;20056;-75
2022/01/25 09:45:04;;;;;;;89.78;40.65;;;;;;;;;;5051748;28;20024;-76
2022/01/25 09:47:30;;;;;;;91.43;41.90;;;;;;;;;;5051443;28;20027;-76
2022/01/25 09:49:56;;;;;;;89.40;42.08;;;;;;;;;;5052305;28;20420;-77
2022/01/25 09:52:23;;;;;;;90.45;40.25;;;;;;;;;;5067717;28;20104;-78
2022/01/25 09:54:56;;;;;;;90.75;40.53;;;;;;;;;;5071743;28;20049;-79
2022/01/25 09:57:22;;;;;;;84.95;40.42;;;;;;;;;;5054574;28;20036;-80
2022/01/25 09:59:48;;;;;;;91.30;41.20;;;;;;;;;;5052802;28;20402;-79
2022/01/25 10:02:34;;;;;;;91.30;41.28;;;;;;;;;;5044290;28;20063;-80
2022/01/25 10:05:15;;;;;;;87.25;40.65;;;;;;;;;;5049352;28;20075;-79
2022/01/25 10:07:41;;;;;;;86.00;40.90;;;;;;;;;;5039027;28;20099;-80
2022/01/25 10:10:07;;;;;;;86.75;39.80;;;;;;;;;;5045827;28;20040;-79
2022/01/25 10:12:33;;;;;;;88.07;41.38;;;;;;;;;;5043687;28;20096;-79
2022/01/25 10:14:59;;;;;;;81.05;39.55;;;;;;;;;;5047051;28;20109;-79
2022/01/25 10:17:32;;;;;;;84.97;41.40;;;;;;;;;;5040755;28;20558;-79
2022/01/25 10:19:59;;;;;;;84.57;41.15;;;;;;;;;;5046414;28;20063;-79
2022/01/25 10:22:25;;;;;;;83.40;40.03;;;;;;;;;;5049766;28;20024;-79
2022/01/25 10:24:51;;;;;;;81.95;40.78;;;;;;;;;;5049534;28;20045;-79
2022/01/25 10:27:22;;;;;;;85.28;40.97;;;;;;;;;;5050019;28;20033;-77
2022/01/25 10:29:48;;;;;;;79.70;38.00;;;;;;;;;;5050520;28;20021;-78
2022/01/25 10:32:15;;;;;;;85.43;39.10;;;;;;;;;;5047502;28;20401;-78
2022/01/25 10:34:45;;;;;;;84.95;39.75;;;;;;;;;;5047851;28;20060;-78
2022/01/25 10:37:12;;;;;;;82.35;39.33;;;;;;;;;;5044211;28;20417;-77
2022/01/25 10:39:43;;;;;;;83.60;39.78;;;;;;;;;;5036481;28;20425;-77
2022/01/25 10:42:11;;;;;;;85.07;40.15;;;;;;;;;;5046385;28;20021;-77
2022/01/25 10:44:56;;;;;;;83.13;39.83;;;;;;;;;;5055296;28;20025;-76
2022/01/25 10:47:37;;;;;;;85.70;40.10;;;;;;;;;;5048033;28;20130;-77
2022/01/25 10:50:11;;;;;;;83.80;39.15;;;;;;;;;;5047591;28;20136;-75
2022/01/25 10:52:37;;;;;;;87.10;38.85;;;;;;;;;;5051174;28;20332;-79
2022/01/25 10:55:07;;;;;;;86.25;39.55;;;;;;;;;;5054373;28;20979;-77
2022/01/25 10:57:33;;;;;;;83.13;39.28;;;;;;;;;;5049452;28;20033;-77
2022/01/25 11:00:00;;;;;;;81.72;38.58;;;;;;;;;;5042086;28;20095;-77
2022/01/25 11:02:27;;;;;;;77.63;38.25;;;;;;;;;;5048320;28;20021;-79
2022/01/25 11:05:04;;;;;;;85.70;39.65;;;;;;;;;;5051350;28;20148;-78
2022/01/25 11:07:36;;;;;;;88.60;41.22;;;;;;;;;;5055985;28;20119;-79
2022/01/25 11:10:03;;;;;;;84.45;39.30;;;;;;;;;;5053704;28;20048;-79
2022/01/25 11:12:36;;;;;;;82.43;38.83;;;;;;;;;;5055961;28;20112;-78
2022/01/25 11:15:02;;;;;;;79.93;37.30;;;;;;;;;;5055893;28;20422;-78
2022/01/25 11:17:29;;;;;;;84.00;39.47;;;;;;;;;;5055587;28;20109;-78
2022/01/25 11:19:55;;;;;;;82.05;38.20;;;;;;;;;;5052321;28;20041;-79
2022/01/25 11:22:22;;;;;;;81.68;38.20;;;;;;;;;;5048759;28;20028;-79
2022/01/25 11:24:52;;;;;;;91.85;40.33;;;;;;;;;;5047106;28;20025;-79
2022/01/25 11:27:18;;;;;;;81.28;38.72;;;;;;;;;;5044570;28;20452;-78
2022/01/25 11:29:45;;;;;;;85.70;39.13;;;;;;;;;;5035793;28;20033;-79
2022/01/25 11:32:16;;;;;;;89.03;40.00;;;;;;;;;;5035665;28;20029;-78
2022/01/25 11:34:44;;;;;;;83.07;39.92;;;;;;;;;;5040482;28;20081;-79
2022/01/25 11:37:10;;;;;;;83.03;37.90;;;;;;;;;;5036775;28;22074;-79
2022/01/25 11:39:39;;;;;;;84.32;39.15;;;;;;;;;;5049398;28;20037;-79
2022/01/25 11:42:10;;;;;;;85.97;40.20;;;;;;;;;;5046413;28;20028;-79
2022/01/25 11:44:45;;;;;;;86.32;39.40;;;;;;;;;;5044817;28;20468;-79
2022/01/25 11:47:13;;;;;;;87.53;40.10;;;;;;;;;;5055151;28;20082;-79
2022/01/25 11:49:51;;;;;;;85.25;38.85;;;;;;;;;;5054715;28;20441;-79
2022/01/25 11:52:17;;;;;;;87.15;40.35;;;;;;;;;;5066483;28;20479;-79
2022/01/25 11:54:44;;;;;;;83.45;40.10;;;;;;;;;;5059344;28;20033;-79
2022/01/25 11:57:10;;;;;;;81.28;38.13;;;;;;;;;;5053408;28;20036;-79
2022/01/25 11:59:37;;;;;;;87.68;40.08;;;;;;;;;;5051981;28;20025;-79
2022/01/25 12:02:03;;;;;;;100.70;43.55;;;;;;;;;;5043745;28;20096;-78
2022/01/25 12:04:30;;;;;;;82.40;38.05;;;;;;;;;;5049563;28;20025;-79
2022/01/25 12:07:02;;;;;;;84.10;39.78;;;;;;;;;;5038416;28;20018;-78
2022/01/25 12:09:49;;;;;;;103.78;47.33;;;;;;;;;;5035173;28;20048;-79
2022/01/25 12:12:17;;;;;;;99.72;44.10;;;;;;;;;;5054005;28;20035;-78
2022/01/25 12:14:49;;;;;;;91.00;40.40;;;;;;;;;;5052374;28;20033;-77
2022/01/25 12:17:16;;;;;;;;;;;;;;;;;;5054980;28;20078;-78
2022/01/25 12:19:59;;;;;;;91.78;40.58;;;;;;;;;;5053119;28;19908;-77
2022/01/25 12:22:42;;;;;;;100.18;44.05;;;;;;;;;;5047735;28;20502;-76
2022/01/25 12:25:15;;;;;;;94.05;41.72;;;;;;;;;;5050434;28;20056;-76
2022/01/25 12:27:53;;;;;;;101.80;44.78;;;;;;;;;;5046535;28;20104;-77
2022/01/25 12:30:18;;;;;;;96.40;44.70;;;;;;;;;;5050454;28;20046;-76
2022/01/25 12:32:55;;;;;;;96.65;42.10;;;;;;;;;;5053654;28;20472;-77
2022/01/25 12:35:33;;;;;;;97.28;40.72;;;;;;;;;;5042652;28;20089;-76
2022/01/25 12:38:00;;;;;;;92.18;40.10;;;;;;;;;;5050537;28;20218;-77
2022/01/25 12:40:28;;;;;;;83.25;38.97;;;;;;;;;;5045827;28;20387;-76
2022/01/25 12:42:58;;;;;;;88.50;40.05;;;;;;;;;;5050101;28;20009;-76
2022/01/25 12:45:26;;;;;;;84.00;38.47;;;;;;;;;;5046888;28;20017;-77
2022/01/25 12:47:56;;;;;;;92.32;40.25;;;;;;;;;;5052038;28;20079;-76
2022/01/25 12:50:23;;;;;;;88.80;40.25;;;;;;;;;;5049735;28;20108;-76
2022/01/25 12:52:49;;;;;;;90.82;39.95;;;;;;;;;;5065458;28;20021;-75
2022/01/25 12:55:16;;;;;;;85.82;39.28;;;;;;;;;;5049988;28;20064;-75
2022/01/25 12:57:50;;;;;;;85.53;38.95;;;;;;;;;;5052680;28;20036;-77
2022/01/25 13:00:16;;;;;;;84.03;38.70;;;;;;;;;;5050617;28;20470;-78
2022/01/25 13:02:42;;;;;;;87.13;39.80;;;;;;;;;;5052697;28;20031;-77
2022/01/25 13:05:19;;;;;;;81.22;38.20;;;;;;;;;;5052440;28;20063;-77
2022/01/25 13:07:45;;;;;;;88.88;40.08;;;;;;;;;;5052797;28;20017;-77
2022/01/25 13:10:12;;;;;;;84.78;38.55;;;;;;;;;;5052373;28;20095;-77
2022/01/25 13:12:56;;;;;;;81.28;37.60;;;;;;;;;;5052571;28;20411;-77
2022/01/25 13:15:52;;;;;;;89.28;39.90;;;;;;;;;;5052899;28;20033;-78
2022/01/25 13:18:19;;;;;;;90.43;40.83;;;;;;;;;;5052724;28;20491;-77
2022/01/25 13:20:48;;;;;;;90.10;40.10;;;;;;;;;;5052628;28;20025;-78
2022/01/25 13:23:14;;;;;;;85.22;39.60;;;;;;;;;;5049071;28;20071;-78
2022/01/25 13:25:55;;;;;;;91.15;40.13;;;;;;;;;;5053157;28;20180;-78
2022/01/25 13:28:54;;;;;;;86.00;39.83;;;;;;;;;;5052610;28;20021;-78
2022/01/25 13:31:12;;;;;;;87.68;38.92;;;;;;;;;;5052515;28;20032;-77
2022/01/25 13:33:38;;;;;;;88.80;39.72;;;;;;;;;;5052465;28;20452;-78
2022/01/25 13:36:07;;;;;;;90.72;40.10;;;;;;;;;;5052370;28;20049;-78
2022/01/25 13:38:36;;;;;;;79.75;37.67;;;;;;;;;;5052264;28;20044;-78
2022/01/25 13:46:42;;;;;;;91.43;41.60;;;;;;;;;;5052648;28;20115;-77
2022/01/25 13:49:19;;;;;;;86.30;39.40;;;;;;;;;;5052332;28;20109;-78
2022/01/25 13:51:44;;;;;;;91.75;39.80;;;;;;;;;;5055362;28;20024;-78
2022/01/25 13:54:15;;;;;;;90.45;40.70;;;;;;;;;;5072299;28;20024;-78
2022/01/25 13:56:42;;;;;;;87.40;41.22;;;;;;;;;;5046280;28;20081;-78
2022/01/25 13:59:08;;;;;;;90.45;39.95;;;;;;;;;;5032069;28;20018;-77
2022/01/25 14:01:36;;;;;;;87.35;39.38;;;;;;;;;;5032475;28;20033;-78
2022/01/25 14:04:04;;;;;;;87.05;39.45;;;;;;;;;;5032097;28;20357;-78
2022/01/25 14:06:30;;;;;;;92.00;40.17;;;;;;;;;;5032213;28;20384;-77
2022/01/25 14:09:12;;;;;;;87.53;38.47;;;;;;;;;;5037783;28;20013;-78
2022/01/25 14:11:55;;;;;;;88.75;39.80;;;;;;;;;;5053149;28;20100;-78
2022/01/25 14:25:14;;;;;;;82.45;37.05;;;;;;;;;;5055747;28;20028;-78
2022/01/25 14:27:51;;;;;;;81.78;36.75;;;;;;;;;;5055558;28;20059;-77
2022/01/25 14:30:18;;;;;;;78.03;36.25;;;;;;;;;;5055865;28;20025;-78
2022/01/25 14:32:44;;;;;;;86.45;38.28;;;;;;;;;;5055969;28;20028;-77
2022/01/25 14:35:12;;;;;;;82.45;37.20;;;;;;;;;;5055991;28;20502;-77
2022/01/25 14:37:49;;;;;;;84.72;37.83;;;;;;;;;;5055954;28;20035;-77
2022/01/25 14:40:16;;;;;;;82.43;37.40;;;;;;;;;;5055942;28;20021;-78
2022/01/25 14:42:43;;;;;;;86.85;38.30;;;;;;;;;;5055652;28;20039;-77
2022/01/25 14:45:14;;;;;;;85.03;36.58;;;;;;;;;;5054405;28;20021;-77
2022/01/25 14:47:45;;;;;;;81.75;37.03;;;;;;;;;;5055938;28;20062;-77
2022/01/25 14:50:33;;;;;;;96.72;43.85;;;;;;;;;;5055985;28;20056;-77
2022/01/25 14:53:10;;;;;;;86.53;39.67;;;;;;;;;;5056539;28;20111;-76
2022/01/25 14:55:38;;;;;;;81.78;38.17;;;;;;;;;;5055000;28;20029;-76
2022/01/25 15:00:56;;;;;;;81.65;35.97;;;;;;;;;;4984863;28;20555;-75
2022/01/25 15:03:23;;;;;;;80.05;35.58;;;;;;;;;;4992140;28;20034;-74
2022/01/25 15:05:50;;;;;;;80.65;35.10;;;;;;;;;;4992358;28;20115;-75
2022/01/25 15:08:16;;;;;;;85.18;37.80;;;;;;;;;;4992352;28;20030;-74
2022/01/25 15:10:45;;;;;;;82.65;36.97;;;;;;;;;;4989781;28;20026;-74
2022/01/25 15:13:12;;;;;;;85.40;36.35;;;;;;;;;;4992484;28;20034;-75
2022/01/25 15:18:35;;;;;;;82.78;35.92;;;;;;;;;;4953756;29;20513;-74
2022/01/25 15:21:04;;;;;;;81.05;36.20;;;;;;;;;;4953841;29;20425;-74
2022/01/25 15:23:32;;;;;;;84.47;38.00;;;;;;;;;;4948553;28;20035;-74
2022/01/25 15:26:00;;;;;;;84.68;38.28;;;;;;;;;;4953614;29;20023;-74
2022/01/25 15:28:40;;;;;;;83.13;36.45;;;;;;;;;;4952740;29;20046;-74
2022/01/25 15:31:07;;;;;;;83.95;37.55;;;;;;;;;;4953017;29;20478;-74
2022/01/25 15:33:33;;;;;;;86.95;38.53;;;;;;;;;;4953918;29;20135;-74
2022/01/25 15:36:00;;;;;;;79.93;36.17;;;;;;;;;;4953867;29;20506;-74
2022/01/25 15:38:26;;;;;;;85.38;37.40;;;;;;;;;;4980623;28;20497;-74
2022/01/25 15:40:52;;;;;;;79.32;36.17;;;;;;;;;;4992517;28;20058;-74
2022/01/25 15:43:24;;;;;;;84.43;36.58;;;;;;;;;;4992545;28;20104;-74
2022/01/25 15:48:42;;;;;;;83.28;36.28;;;;;;;;;;4992361;28;20038;-74
2022/01/25 15:51:08;;;;;;;83.20;36.75;;;;;;;;;;4992318;28;20080;-74
2022/01/25 15:53:34;;;;;;;85.55;36.28;;;;;;;;;;4996919;28;20047;-74
2022/01/25 15:56:00;;;;;;;82.65;37.05;;;;;;;;;;5007924;28;20084;-74
2022/01/25 15:58:26;;;;;;;85.22;37.40;;;;;;;;;;5012060;28;20041;-75
2022/01/25 16:00:52;;;;;;;82.47;35.92;;;;;;;;;;4995538;28;20040;-74
2022/01/25 16:03:20;;;;;;;88.07;37.67;;;;;;;;;;5011905;28;20033;-74
2022/01/25 16:05:46;;;;;;;88.35;38.38;;;;;;;;;;5011554;28;20080;-74
2022/01/25 16:08:14;;;;;;;84.40;37.05;;;;;;;;;;4995308;28;20022;-74
2022/01/25 16:10:41;;;;;;;85.10;37.58;;;;;;;;;;5014010;28;20861;-74
2022/01/25 16:13:07;;;;;;;84.10;35.92;;;;;;;;;;4995238;28;20038;-74
2022/01/25 16:15:36;;;;;;;87.78;38.20;;;;;;;;;;5012317;28;20041;-76
2022/01/25 16:18:02;;;;;;;90.15;37.33;;;;;;;;;;5012140;28;20038;-75
2022/01/25 16:20:28;;;;;;;83.72;36.53;;;;;;;;;;5011969;28;20061;-76
2022/01/25 16:22:55;;;;;;;83.78;37.33;;;;;;;;;;5011933;28;20026;-75
2022/01/25 16:25:21;;;;;;;86.63;38.72;;;;;;;;;;5030467;28;20083;-73
2022/01/25 16:27:47;;;;;;;81.65;36.38;;;;;;;;;;5054062;28;20491;-76
2022/01/25 16:30:13;;;;;;;84.93;35.53;;;;;;;;;;5053952;28;20388;-75
2022/01/25 16:32:43;;;;;;;87.40;36.17;;;;;;;;;;5053300;28;20451;-74